createdAt,value
2022-08-02T00:01:23.560Z,3.40
2022-08-02T00:03:53.263Z,3.67
2022-08-02T00:06:21.578Z,3.47
2022-08-02T00:08:49.874Z,3.67
2022-08-02T00:11:18.263Z,3.53
2022-08-02T00:13:46.564Z,3.55
2022-08-02T00:16:16.922Z,3.45
2022-08-02T00:18:45.566Z,3.45
2022-08-02T00:21:15.293Z,3.80
2022-08-02T00:24:28.031Z,2.90
2022-08-02T00:26:33.523Z,3.60
2022-08-02T00:29:01.868Z,3.45
2022-08-02T00:31:30.187Z,3.33
2022-08-02T00:34:05.257Z,3.42
2022-08-02T00:36:48.184Z,3.30
2022-08-02T00:39:34.677Z,3.05
2022-08-02T00:42:04.249Z,2.85
2022-08-02T00:44:32.549Z,3.00
2022-08-02T00:47:00.956Z,4.20
2022-08-02T00:49:29.629Z,3.50
2022-08-02T00:51:59.411Z,2.92
2022-08-02T00:54:27.724Z,2.92
2022-08-02T00:56:56.062Z,3.42
2022-08-02T00:59:24.433Z,3.20
2022-08-02T01:01:57.043Z,3.00
2022-08-02T01:06:59.728Z,4.25
2022-08-02T01:09:28.037Z,3.05
2022-08-02T01:11:56.424Z,2.85
2022-08-02T01:14:25.920Z,3.53
2022-08-02T01:16:55.697Z,2.67
2022-08-02T01:19:36.454Z,3.85
2022-08-02T01:22:15.077Z,3.13
2022-08-02T01:24:54.295Z,3.35
2022-08-02T01:27:33.935Z,3.28
2022-08-02T01:30:04.391Z,3.63
2022-08-02T01:32:35.521Z,3.40
2022-08-02T01:35:05.236Z,3.25
2022-08-02T01:37:36.097Z,3.50
2022-08-02T01:40:08.333Z,3.20
2022-08-02T01:42:37.522Z,3.25
2022-08-02T01:45:08.157Z,2.97
2022-08-02T01:47:38.196Z,3.42
2022-08-02T01:50:07.596Z,2.88
2022-08-02T01:52:38.984Z,3.47
2022-08-02T01:55:09.946Z,3.35
2022-08-02T01:57:52.498Z,4.38
2022-08-02T02:00:23.654Z,3.25
2022-08-02T02:02:52.433Z,4.55
2022-08-02T02:05:22.955Z,3.47
2022-08-02T02:07:52.125Z,3.33
2022-08-02T02:10:22.700Z,3.70
2022-08-02T02:12:52.198Z,3.60
2022-08-02T02:15:20.813Z,3.20
2022-08-02T02:18:13.022Z,4.30
2022-08-02T02:20:41.459Z,3.55
2022-08-02T02:23:09.873Z,3.30
2022-08-02T02:25:41.500Z,3.65
2022-08-02T02:28:16.358Z,3.58
2022-08-02T02:30:47.577Z,3.00
2022-08-02T02:33:19.297Z,3.75
2022-08-02T02:35:48.560Z,3.53
2022-08-02T02:38:18.471Z,3.28
2022-08-02T02:40:47.274Z,3.55
2022-08-02T02:43:15.857Z,5.35
2022-08-02T02:45:45.362Z,4.47
2022-08-02T02:48:15.393Z,3.97
2022-08-02T02:50:45.590Z,3.92
2022-08-02T02:53:15.164Z,4.78
2022-08-02T02:56:02.015Z,5.55
2022-08-02T02:58:31.780Z,3.40
2022-08-02T03:01:20.138Z,4.05
2022-08-02T03:03:48.603Z,4.28
2022-08-02T03:06:18.334Z,4.18
2022-08-02T03:08:46.691Z,3.72
2022-08-02T03:11:15.680Z,3.67
2022-08-02T03:13:44.047Z,3.53
2022-08-02T03:16:12.653Z,4.03
2022-08-02T03:18:42.456Z,3.50
2022-08-02T03:21:11.673Z,4.03
2022-08-02T03:23:42.046Z,3.67
2022-08-02T03:26:10.536Z,5.45
2022-08-02T03:28:38.905Z,3.38
2022-08-02T03:31:07.272Z,4.50
2022-08-02T03:33:35.718Z,4.70
2022-08-02T03:36:08.480Z,3.28
2022-08-02T03:38:37.005Z,4.05
2022-08-02T03:41:07.478Z,3.75
2022-08-02T03:43:36.726Z,4.40
2022-08-02T03:46:05.487Z,3.72
2022-08-02T03:48:35.302Z,5.38
2022-08-02T03:51:04.401Z,3.88
2022-08-02T03:53:32.901Z,4.88
2022-08-02T03:56:01.393Z,3.70
2022-08-02T03:58:31.056Z,4.10
2022-08-02T04:01:00.233Z,3.75
2022-08-02T04:03:28.592Z,3.80
2022-08-02T04:06:03.393Z,4.63
2022-08-02T04:08:37.534Z,3.85
2022-08-02T04:11:24.539Z,3.45
2022-08-02T04:13:56.958Z,7.32
2022-08-02T04:16:29.367Z,4.35
2022-08-02T04:18:58.469Z,4.47
2022-08-02T04:21:51.486Z,3.00
2022-08-02T04:24:19.042Z,4.05
2022-08-02T04:26:49.099Z,3.95
2022-08-02T04:29:20.918Z,5.00
2022-08-02T04:31:49.470Z,4.35
2022-08-02T04:34:17.835Z,3.28
2022-08-02T04:36:46.819Z,4.75
2022-08-02T04:39:15.264Z,3.72
2022-08-02T04:41:44.591Z,4.15
2022-08-02T04:44:13.397Z,5.05
2022-08-02T04:46:43.519Z,3.65
2022-08-02T04:49:11.898Z,4.30
2022-08-02T04:51:41.228Z,4.97
2022-08-02T04:54:10.553Z,4.35
2022-08-02T04:56:38.982Z,4.72
2022-08-02T04:59:08.635Z,4.50
2022-08-02T05:01:37.028Z,3.65
2022-08-02T05:04:07.033Z,3.85
2022-08-02T05:06:35.465Z,6.30
2022-08-02T05:09:03.797Z,4.43
2022-08-02T05:11:36.555Z,3.95
2022-08-02T05:14:05.992Z,5.00
2022-08-02T05:16:34.349Z,4.68
2022-08-02T05:19:03.154Z,3.95
2022-08-02T05:21:33.115Z,4.22
2022-08-02T05:24:01.453Z,4.82
2022-08-02T05:26:29.858Z,6.38
2022-08-02T05:28:58.166Z,7.38
2022-08-02T05:31:26.924Z,11.35
2022-08-02T05:33:55.222Z,6.38
2022-08-02T05:36:23.572Z,8.70
2022-08-02T05:38:59.543Z,5.90
2022-08-02T05:41:33.215Z,6.05
2022-08-02T05:44:01.753Z,6.38
2022-08-02T05:46:30.114Z,7.95
2022-08-02T05:48:58.633Z,6.82
2022-08-02T05:51:30.496Z,5.85
2022-08-02T05:54:04.552Z,9.00
2022-08-02T05:56:35.845Z,12.15
2022-08-02T05:59:05.518Z,9.38
2022-08-02T06:01:36.727Z,4.65
2022-08-02T06:04:07.739Z,6.18
2022-08-02T06:06:36.710Z,5.45
2022-08-02T06:09:10.457Z,8.75
2022-08-02T06:11:39.972Z,6.15
2022-08-02T06:14:09.668Z,3.70
2022-08-02T06:16:42.497Z,3.80
2022-08-02T06:19:10.988Z,4.32
2022-08-02T06:22:35.897Z,5.05
2022-08-02T06:24:31.137Z,3.53
2022-08-02T06:27:00.377Z,3.75
2022-08-02T06:29:29.028Z,4.50
2022-08-02T06:31:58.193Z,4.75
2022-08-02T06:34:26.478Z,3.53
2022-08-02T06:37:00.554Z,4.68
2022-08-02T06:39:33.713Z,2.92
2022-08-02T06:42:05.394Z,3.55
2022-08-02T06:44:51.887Z,3.47
2022-08-02T06:47:22.062Z,3.60
2022-08-02T06:49:54.753Z,3.28
2022-08-02T06:52:28.417Z,2.97
2022-08-02T06:54:57.706Z,3.72
2022-08-02T06:57:27.502Z,2.95
2022-08-02T06:59:57.965Z,3.50
2022-08-02T07:02:26.296Z,3.67
2022-08-02T07:04:54.630Z,3.42
2022-08-02T07:07:26.153Z,2.97
2022-08-02T07:09:56.311Z,3.22
2022-08-02T07:12:31.307Z,2.88
2022-08-02T07:15:03.338Z,5.05
2022-08-02T07:17:34.629Z,4.97
2022-08-02T07:20:06.173Z,3.33
2022-08-02T07:22:36.942Z,3.08
2022-08-02T07:25:08.778Z,2.80
2022-08-02T07:27:49.310Z,3.40
2022-08-02T07:30:20.636Z,3.55
2022-08-02T07:32:51.722Z,4.78
2022-08-02T07:35:22.586Z,2.53
2022-08-02T07:38:01.825Z,2.80
2022-08-02T07:40:30.713Z,2.60
2022-08-02T07:43:05.330Z,4.75
2022-08-02T07:45:36.012Z,3.08
2022-08-02T07:48:13.902Z,3.17
2022-08-02T07:50:42.270Z,3.05
2022-08-02T07:53:10.573Z,2.95
2022-08-02T07:55:39.889Z,3.20
2022-08-02T07:58:11.075Z,2.70
2022-08-02T08:00:41.893Z,4.05
2022-08-02T08:03:10.189Z,2.53
2022-08-02T08:05:38.722Z,3.13
2022-08-02T08:08:07.147Z,3.10
2022-08-02T08:10:35.461Z,5.05
2022-08-02T08:13:03.759Z,3.45
2022-08-02T08:15:33.435Z,3.65
2022-08-02T08:18:01.753Z,2.88
2022-08-02T08:20:30.113Z,2.88
2022-08-02T08:22:58.431Z,2.20
2022-08-02T08:25:27.262Z,2.72
2022-08-02T08:27:55.731Z,3.22
2022-08-02T08:30:25.351Z,2.85
2022-08-02T08:32:55.019Z,2.20
2022-08-02T08:35:23.415Z,3.28
2022-08-02T08:37:52.480Z,3.05
2022-08-02T08:40:20.814Z,4.95
2022-08-02T08:42:49.347Z,2.78
2022-08-02T08:45:18.054Z,2.70
2022-08-02T08:47:47.719Z,2.90
2022-08-02T08:50:24.731Z,2.80
2022-08-02T08:52:55.519Z,2.05
2022-08-02T08:55:24.893Z,2.83
2022-08-02T08:57:53.821Z,2.60
2022-08-02T09:00:22.158Z,2.70
2022-08-02T09:02:51.154Z,2.60
2022-08-02T09:05:20.918Z,2.60
2022-08-02T09:07:49.363Z,2.55
2022-08-02T09:10:37.127Z,2.72
2022-08-02T09:13:38.443Z,2.25
2022-08-02T09:16:12.417Z,2.28
2022-08-02T09:18:43.842Z,2.50
2022-08-02T09:21:14.863Z,2.38
2022-08-02T09:23:44.388Z,2.45
2022-08-02T09:26:13.999Z,3.40
2022-08-02T09:28:43.286Z,2.72
2022-08-02T09:31:12.775Z,2.63
2022-08-02T09:33:41.693Z,2.60
2022-08-02T09:36:12.234Z,3.15
2022-08-02T09:38:42.523Z,2.75
2022-08-02T09:41:21.815Z,2.78
2022-08-02T09:44:03.549Z,2.35
2022-08-02T09:46:33.531Z,2.67
2022-08-02T09:49:03.256Z,3.42
2022-08-02T09:51:32.404Z,2.30
2022-08-02T09:54:10.053Z,2.90
2022-08-02T09:56:42.513Z,3.33
2022-08-02T09:59:10.908Z,2.17
2022-08-02T10:01:39.738Z,2.38
2022-08-02T10:04:21.760Z,4.25
2022-08-02T10:06:51.703Z,3.35
2022-08-02T10:09:21.815Z,2.30
2022-08-02T10:11:50.551Z,2.50
2022-08-02T10:14:20.571Z,2.90
2022-08-02T10:16:48.859Z,2.35
2022-08-02T10:19:17.927Z,2.65
2022-08-02T10:22:07.394Z,2.72
2022-08-02T10:24:39.466Z,2.30
2022-08-02T10:27:16.853Z,2.60
2022-08-02T10:29:54.051Z,2.40
2022-08-02T10:32:25.902Z,2.28
2022-08-02T10:34:56.127Z,2.80
2022-08-02T10:37:30.338Z,2.93
2022-08-02T10:40:00.176Z,2.43
2022-08-02T10:42:43.363Z,3.45
2022-08-02T10:45:12.020Z,2.17
2022-08-02T10:47:40.336Z,2.00
2022-08-02T10:50:09.092Z,2.05
2022-08-02T10:52:37.478Z,1.75
2022-08-02T10:55:14.723Z,1.92
2022-08-02T10:57:50.025Z,3.25
2022-08-02T11:00:27.674Z,1.85
2022-08-02T11:02:56.035Z,2.28
2022-08-02T11:05:42.610Z,2.10
2022-08-02T11:08:20.124Z,1.95
2022-08-02T11:10:49.787Z,1.58
2022-08-02T11:13:19.650Z,2.65
2022-08-02T11:15:52.047Z,2.28
2022-08-02T11:18:20.558Z,2.10
2022-08-02T11:20:48.947Z,2.05
2022-08-02T11:23:44.836Z,2.25
2022-08-02T11:26:32.668Z,2.50
2022-08-02T11:29:03.532Z,2.10
2022-08-02T11:31:39.832Z,2.35
2022-08-02T11:34:09.926Z,2.30
2022-08-02T11:36:45.391Z,2.92
2022-08-02T11:39:15.830Z,1.98
2022-08-02T11:41:47.197Z,2.55
2022-08-02T11:44:17.402Z,1.85
2022-08-02T11:46:46.310Z,2.03
2022-08-02T11:49:15.605Z,1.90
2022-08-02T11:51:57.541Z,2.22
2022-08-02T11:54:27.496Z,2.53
2022-08-02T11:56:55.850Z,3.17
2022-08-02T11:59:25.654Z,2.00
2022-08-02T12:01:53.943Z,4.22
2022-08-02T12:04:22.759Z,1.63
2022-08-02T12:07:02.359Z,2.53
2022-08-02T12:09:38.042Z,2.05
2022-08-02T12:12:11.782Z,2.70
2022-08-02T12:14:45.366Z,1.80
2022-08-02T12:17:31.074Z,1.77
2022-08-02T12:20:01.003Z,2.00
2022-08-02T12:22:29.682Z,2.60
2022-08-02T12:24:58.721Z,3.22
2022-08-02T12:27:33.540Z,2.15
2022-08-02T12:30:05.134Z,1.80
2022-08-02T12:32:33.680Z,1.55
2022-08-02T12:35:06.374Z,2.13
2022-08-02T12:37:34.865Z,1.90
2022-08-02T12:40:18.046Z,2.20
2022-08-02T12:42:49.357Z,1.70
2022-08-02T12:45:19.216Z,1.98
2022-08-02T12:47:48.932Z,2.85
2022-08-02T12:50:18.248Z,2.22
2022-08-02T12:52:47.148Z,2.83
2022-08-02T12:55:19.558Z,2.45
2022-08-02T12:57:58.062Z,2.22
2022-08-02T13:00:29.609Z,1.73
2022-08-02T13:02:58.253Z,1.90
2022-08-02T13:05:27.322Z,1.60
2022-08-02T13:07:55.597Z,2.42
2022-08-02T13:10:24.158Z,2.08
2022-08-02T13:12:52.706Z,1.95
2022-08-02T13:15:49.772Z,2.20
2022-08-02T13:18:11.407Z,1.55
2022-08-02T13:20:44.747Z,1.75
2022-08-02T13:23:21.314Z,2.03
2022-08-02T13:25:52.570Z,2.00
2022-08-02T13:28:21.367Z,1.98
2022-08-02T13:30:49.758Z,1.83
2022-08-02T13:33:19.763Z,2.03
2022-08-02T13:35:48.368Z,1.90
2022-08-02T13:38:16.683Z,2.10
2022-08-02T13:41:04.350Z,4.22
2022-08-02T13:43:53.433Z,2.00
2022-08-02T13:46:28.583Z,1.75
2022-08-02T13:48:59.334Z,3.53
2022-08-02T13:51:27.712Z,1.77
2022-08-02T13:53:56.013Z,1.98
2022-08-02T13:56:35.119Z,1.75
2022-08-02T13:59:21.999Z,1.88
2022-08-02T14:01:52.729Z,2.22
2022-08-02T14:04:22.393Z,1.77
2022-08-02T14:06:50.709Z,1.63
2022-08-02T14:09:19.087Z,2.00
2022-08-02T14:11:47.461Z,1.77
2022-08-02T14:14:17.408Z,3.03
2022-08-02T14:16:46.175Z,1.70
2022-08-02T14:19:16.144Z,1.77
2022-08-02T14:21:48.042Z,1.55
2022-08-02T14:24:17.214Z,1.85
2022-08-02T14:26:45.859Z,1.95
2022-08-02T14:29:14.480Z,2.05
2022-08-02T14:31:44.659Z,1.58
2022-08-02T14:34:14.011Z,1.42
2022-08-02T14:36:42.483Z,1.75
2022-08-02T14:39:12.303Z,1.92
2022-08-02T14:41:58.023Z,1.77
2022-08-02T14:44:27.575Z,1.88
2022-08-02T14:46:55.899Z,1.58
2022-08-02T14:49:26.595Z,1.60
2022-08-02T14:51:55.582Z,1.70
2022-08-02T14:54:30.110Z,2.17
2022-08-02T14:56:58.990Z,2.13
2022-08-02T14:59:27.289Z,1.42
2022-08-02T15:01:55.759Z,1.67
2022-08-02T15:04:24.156Z,1.73
2022-08-02T15:06:52.558Z,1.90
2022-08-02T15:09:21.131Z,2.10
2022-08-02T15:11:50.824Z,1.55
2022-08-02T15:14:22.347Z,1.90
2022-08-02T15:16:57.699Z,1.92
2022-08-02T15:19:56.215Z,1.60
2022-08-02T15:22:16.836Z,1.75
2022-08-02T15:24:47.537Z,1.40
2022-08-02T15:27:17.254Z,1.83
2022-08-02T15:29:46.353Z,1.70
2022-08-02T15:32:15.325Z,1.55
2022-08-02T15:34:43.872Z,2.47
2022-08-02T15:37:12.653Z,2.17
2022-08-02T15:39:40.994Z,1.63
2022-08-02T15:42:09.561Z,1.45
2022-08-02T15:44:39.887Z,2.00
2022-08-02T15:47:08.331Z,1.55
2022-08-02T15:49:41.014Z,2.25
2022-08-02T15:52:09.980Z,1.75
2022-08-02T15:54:38.471Z,1.70
2022-08-02T15:57:06.768Z,2.63
2022-08-02T15:59:35.136Z,1.70
2022-08-02T16:02:06.723Z,1.80
2022-08-02T16:04:35.220Z,1.85
2022-08-02T16:07:03.535Z,1.70
2022-08-02T16:09:31.885Z,1.50
2022-08-02T16:12:00.172Z,1.98
2022-08-02T16:14:28.546Z,2.75
2022-08-02T16:16:59.899Z,2.00
2022-08-02T16:19:46.269Z,2.08
2022-08-02T16:22:17.809Z,1.77
2022-08-02T16:24:46.268Z,1.75
2022-08-02T16:27:14.604Z,2.05
2022-08-02T16:29:42.946Z,1.52
2022-08-02T16:32:12.313Z,1.38
2022-08-02T16:35:06.802Z,2.28
2022-08-02T16:37:50.372Z,2.35
2022-08-02T16:40:18.899Z,2.53
2022-08-02T16:42:50.190Z,2.40
2022-08-02T16:45:19.994Z,2.13
2022-08-02T16:47:55.185Z,2.85
2022-08-02T16:50:29.121Z,1.90
2022-08-02T16:52:58.908Z,1.80
2022-08-02T16:55:30.316Z,6.10
2022-08-02T16:57:59.198Z,5.63
2022-08-02T17:00:27.873Z,3.15
2022-08-02T17:02:59.449Z,1.80
2022-08-02T17:05:37.809Z,1.90
2022-08-02T17:08:17.313Z,2.05
2022-08-02T17:10:46.219Z,1.70
2022-08-02T17:13:14.581Z,2.05
2022-08-02T17:16:17.259Z,2.28
2022-08-02T17:18:33.138Z,1.83
2022-08-02T17:21:04.820Z,3.35
2022-08-02T17:24:05.747Z,1.90
2022-08-02T17:26:23.270Z,2.00
2022-08-02T17:29:15.705Z,1.73
2022-08-02T17:31:44.381Z,2.60
2022-08-02T17:34:16.625Z,1.95
2022-08-02T17:36:49.740Z,2.25
2022-08-02T17:39:18.694Z,2.20
2022-08-02T17:41:48.824Z,1.65
2022-08-02T17:44:36.948Z,1.90
2022-08-02T17:47:08.508Z,2.00
2022-08-02T17:49:43.891Z,2.00
2022-08-02T17:52:50.181Z,2.65
2022-08-02T17:55:06.891Z,2.20
2022-08-02T17:57:57.714Z,1.95
2022-08-02T18:00:24.709Z,2.33
2022-08-02T18:02:55.528Z,2.00
2022-08-02T18:05:39.089Z,1.98
2022-08-02T18:08:09.331Z,2.33
2022-08-02T18:10:39.283Z,1.40
2022-08-02T18:13:07.779Z,2.20
2022-08-02T18:15:36.150Z,2.83
2022-08-02T18:18:04.551Z,1.83
2022-08-02T18:20:32.885Z,1.98
2022-08-02T18:23:01.765Z,1.92
2022-08-02T18:25:36.352Z,2.38
2022-08-02T18:28:06.585Z,2.13
2022-08-02T18:30:36.944Z,1.88
2022-08-02T18:33:54.414Z,2.20
2022-08-02T18:35:55.386Z,3.10
2022-08-02T18:38:26.764Z,2.60
2022-08-02T18:40:58.876Z,2.30
2022-08-02T18:43:29.407Z,3.65
2022-08-02T18:46:07.066Z,1.90
2022-08-02T18:51:36.484Z,2.00
2022-08-02T18:56:38.808Z,2.20
2022-08-02T18:59:08.620Z,2.90
2022-08-02T19:01:46.553Z,2.33
2022-08-02T19:09:53.879Z,2.53
2022-08-02T19:12:28.124Z,1.77
2022-08-02T19:14:59.788Z,2.42
2022-08-02T19:17:55.510Z,2.65
2022-08-02T19:20:19.538Z,2.25
2022-08-02T19:22:50.051Z,2.90
2022-08-02T19:25:27.931Z,2.35
2022-08-02T19:27:57.927Z,3.30
2022-08-02T19:30:27.586Z,2.38
2022-08-02T19:32:59.572Z,2.38
2022-08-02T19:36:01.459Z,2.75
2022-08-02T19:38:30.527Z,5.95
2022-08-02T19:41:04.145Z,2.92
2022-08-02T19:44:27.475Z,2.05
2022-08-02T19:46:24.738Z,2.35
2022-08-02T19:48:53.499Z,3.10
2022-08-02T19:51:54.998Z,4.13
2022-08-02T19:54:12.162Z,2.97
2022-08-02T19:56:41.105Z,2.70
2022-08-02T19:59:13.366Z,2.60
2022-08-02T20:01:48.667Z,8.02
2022-08-02T20:04:23.250Z,6.60
2022-08-02T20:06:52.140Z,3.70
2022-08-02T20:09:23.039Z,5.38
2022-08-02T20:11:54.856Z,3.45
2022-08-02T20:14:32.718Z,4.25
2022-08-02T20:17:04.936Z,3.95
2022-08-02T20:19:33.883Z,3.15
2022-08-02T20:22:03.628Z,3.70
2022-08-02T20:24:31.988Z,4.05
2022-08-02T20:27:00.782Z,5.15
2022-08-02T20:29:45.129Z,3.63
2022-08-02T20:32:22.395Z,3.33
2022-08-02T20:34:51.225Z,2.72
2022-08-02T20:37:59.800Z,2.75
2022-08-02T20:40:10.354Z,3.22
2022-08-02T20:42:45.742Z,2.75
2022-08-02T20:45:17.737Z,2.80
2022-08-02T20:47:49.875Z,3.53
2022-08-02T20:50:37.190Z,5.75
2022-08-02T20:53:05.953Z,3.10
2022-08-02T20:55:35.616Z,2.72
2022-08-02T20:58:04.963Z,3.03
2022-08-02T21:00:35.435Z,4.03
2022-08-02T21:03:04.487Z,4.50
2022-08-02T21:05:55.061Z,4.68
2022-08-02T21:08:21.855Z,4.72
2022-08-02T21:10:52.597Z,3.30
2022-08-02T21:13:23.986Z,2.83
2022-08-02T21:18:42.694Z,3.25
2022-08-02T21:21:11.679Z,3.72
2022-08-02T21:23:48.337Z,3.60
2022-08-02T21:26:19.877Z,4.72
2022-08-02T21:28:56.417Z,3.95
2022-08-02T21:31:30.026Z,2.60
2022-08-02T21:34:00.864Z,5.53
2022-08-02T21:36:31.947Z,2.80
2022-08-02T21:39:05.184Z,3.47
2022-08-02T21:41:39.967Z,3.28
2022-08-02T21:44:16.393Z,4.00
2022-08-02T21:46:49.420Z,2.42
2022-08-02T21:49:18.794Z,3.97
2022-08-02T21:51:49.643Z,5.45
2022-08-02T21:54:40.519Z,5.47
2022-08-02T21:57:16.153Z,3.47
2022-08-02T21:59:45.704Z,3.10
2022-08-02T22:02:16.393Z,4.68
2022-08-02T22:04:47.791Z,4.18
2022-08-02T22:07:16.557Z,3.15
2022-08-02T22:09:46.011Z,3.50
2022-08-02T22:12:18.084Z,3.15
2022-08-02T22:17:53.195Z,2.53
2022-08-02T22:20:29.399Z,4.70
2022-08-02T22:22:57.737Z,4.65
2022-08-02T22:25:31.093Z,4.35
2022-08-02T22:28:36.768Z,4.30
2022-08-02T22:30:54.480Z,3.97
2022-08-02T22:33:46.723Z,3.10
2022-08-02T22:36:28.463Z,3.05
2022-08-02T22:38:56.981Z,2.90
2022-08-02T22:41:25.292Z,2.80
2022-08-02T22:44:13.786Z,3.60
2022-08-02T22:46:43.205Z,4.00
2022-08-02T22:49:18.142Z,5.47
2022-08-02T22:52:01.179Z,5.10
2022-08-02T22:54:30.628Z,2.97
2022-08-02T22:57:00.312Z,4.47
2022-08-02T22:58:46.795Z,2.20
2022-08-02T22:58:58.310Z,2.17
2022-08-02T22:59:00.020Z,2.47
2022-08-02T22:59:04.405Z,3.25
2022-08-02T22:59:11.538Z,3.88
2022-08-02T22:59:39.900Z,3.80
2022-08-02T23:02:08.669Z,3.50
2022-08-02T23:04:38.493Z,3.28
2022-08-02T23:07:07.247Z,2.90
2022-08-02T23:09:35.559Z,4.55
2022-08-02T23:12:03.888Z,4.32
2022-08-02T23:14:32.413Z,7.57
2022-08-02T23:17:18.174Z,3.67
2022-08-02T23:19:53.776Z,3.50
2022-08-02T23:22:29.382Z,3.42
2022-08-02T23:25:00.760Z,3.72
2022-08-02T23:27:29.087Z,3.50
2022-08-02T23:29:57.481Z,3.28
2022-08-02T23:32:26.224Z,4.22
2022-08-02T23:34:56.254Z,3.95
2022-08-02T23:37:24.792Z,3.42
2022-08-02T23:39:53.167Z,4.30
2022-08-02T23:42:23.247Z,5.18
2022-08-02T23:44:51.641Z,3.58
2022-08-02T23:47:20.000Z,4.32
2022-08-02T23:49:48.399Z,3.85
2022-08-02T23:52:18.559Z,4.82
2022-08-02T23:54:47.149Z,4.10
2022-08-02T23:57:20.213Z,4.47
2022-08-02T23:59:50.284Z,3.90
